»·PEaware :: N50212 KRIV-KAVX

N50212 :: KRIV-KAVX

FLIGHT INFORMATION

Flight Status: Arrived
Operator: Privately registered:
United States
More flights under this callsign
Pilot: Brad H. (9994)
Aircraft: PIPER PA-34 SENECA
(PA34)
More flights by this aircraft type
Origin: KRIV March ARB
United States
Destination: KAVX Catalina
United States
More flights between these airports :: More routes between these airports
Route: PDZ V16 PRADO V363 DANAH SXC065 SXC
File this flight plan on PilotEdge
Remarks:
Altitude:
(Current/Filed)
6,000ft
Speed:
(Current/Filed)
140kts
Departed: 07-Dec-17 08:21 AM
Arrived: 07-Dec-17 08:59 AM
Distance/Time
Traveled:
64nm/0:38
Distance/Time
To Go:
Arrived

Flight Plot

Page will automatically refresh every two minutes.

Flight plan parsing failed; only flown route is shown


Map Options




Map Legend


Flown Route
Filed Route
Departure Airport
Arrival Airport
Navaid (VOR, NDB)
Fix

Horizontal Profiles

Position Reports

Time Latitude Longitude Heading Altitude Ground
Speed
07-Dec-17 08:05 33.870983 -117.247164 60 1485ft 0kts
07-Dec-17 08:06 33.870983 -117.247164 60 1485ft 0kts
07-Dec-17 08:07 33.870983 -117.247164 60 1485ft 0kts
07-Dec-17 08:08 33.870983 -117.247164 60 1485ft 0kts
07-Dec-17 08:09 33.870983 -117.247164 60 1485ft 0kts
07-Dec-17 08:10 33.870983 -117.247164 60 1485ft 0kts
07-Dec-17 08:11 33.870983 -117.247164 60 1485ft 0kts
07-Dec-17 08:12 33.870983 -117.247164 60 1485ft 0kts
07-Dec-17 08:13 33.870983 -117.247164 60 1485ft 0kts
07-Dec-17 08:14 33.870983 -117.247164 60 1485ft 0kts
07-Dec-17 08:15 33.870983 -117.247164 60 1485ft 0kts
07-Dec-17 08:16 33.870983 -117.247164 60 1485ft 0kts
07-Dec-17 08:17 33.870983 -117.247164 60 1485ft 0kts
07-Dec-17 08:18 33.870983 -117.247164 60 1485ft 0kts
07-Dec-17 08:19 33.870983 -117.247164 60 1485ft 0kts
07-Dec-17 08:20 33.870983 -117.247164 60 1485ft 0kts
07-Dec-17 08:21 33.870983 -117.247164 60 1485ft 0kts
07-Dec-17 08:22 33.870983 -117.247164 60 1485ft 0kts
07-Dec-17 08:23 33.870927 -117.247388 202 1485ft 0kts
07-Dec-17 08:24 33.868614 -117.246901 173 1483ft 15kts
07-Dec-17 08:25 33.865642 -117.247177 234 1482ft 0kts
07-Dec-17 08:26 33.866397 -117.249035 328 1482ft 42kts
07-Dec-17 08:27 33.889050 -117.265552 331 2588ft 104kts
07-Dec-17 08:28 33.913049 -117.283680 332 4140ft 103kts
07-Dec-17 08:29 33.941411 -117.305060 332 5132ft 139kts
07-Dec-17 08:30 33.953762 -117.342447 255 6110ft 147kts
07-Dec-17 08:31 33.942124 -117.389455 263 7037ft 152kts
07-Dec-17 08:32 33.933289 -117.445169 257 7005ft 173kts
07-Dec-17 08:33 33.922684 -117.502307 259 6999ft 175kts
07-Dec-17 08:34 33.917759 -117.559934 277 7012ft 173kts
07-Dec-17 08:35 33.918631 -117.614272 274 6986ft 175kts
07-Dec-17 08:36 33.919666 -117.670730 276 6986ft 173kts
07-Dec-17 08:37 33.920843 -117.728040 276 6982ft 169kts
07-Dec-17 08:38 33.915103 -117.782277 218 6959ft 173kts
07-Dec-17 08:39 33.874257 -117.771308 100 6965ft 155kts
07-Dec-17 08:40 33.869428 -117.720551 89 6972ft 152kts
07-Dec-17 08:41 33.846097 -117.687357 189 6981ft 174kts
07-Dec-17 08:42 33.798817 -117.701185 190 6973ft 174kts
07-Dec-17 08:43 33.751749 -117.715318 192 6972ft 175kts
07-Dec-17 08:44 33.704853 -117.729381 190 6968ft 174kts
07-Dec-17 08:45 33.658019 -117.743138 191 6973ft 172kts
07-Dec-17 08:46 33.611197 -117.756647 191 6968ft 172kts
07-Dec-17 08:47 33.565922 -117.774367 205 6965ft 174kts
07-Dec-17 08:48 33.522514 -117.800129 204 6969ft 173kts
07-Dec-17 08:49 33.483621 -117.833921 223 6966ft 175kts
07-Dec-17 08:50 33.453960 -117.878787 254 6985ft 171kts
07-Dec-17 08:51 33.448791 -117.934276 268 6969ft 170kts
07-Dec-17 08:52 33.441539 -117.990602 262 6964ft 171kts
07-Dec-17 08:53 33.432742 -118.046805 263 6971ft 171kts
07-Dec-17 08:54 33.423794 -118.103095 260 6970ft 173kts
07-Dec-17 08:55 33.414935 -118.159665 261 6983ft 172kts
07-Dec-17 08:56 33.408551 -118.199674 261 6693ft 185kts
07-Dec-17 08:57 33.398890 -118.261388 261 5798ft 188kts
07-Dec-17 08:58 33.389101 -118.322611 261 4864ft 187kts
07-Dec-17 08:59 33.380306 -118.384233 259 3954ft 189kts
07-Dec-17 09:00 33.371295 -118.440557 250 3793ft 150kts
07-Dec-17 09:01 33.377693 -118.479286 10 2625ft 124kts
07-Dec-17 09:02 33.384534 -118.451652 62 2903ft 100kts
07-Dec-17 09:03 33.399070 -118.425931 60 1992ft 83kts
07-Dec-17 09:04 33.407067 -118.412321 58 1518ft 10kts
07-Dec-17 09:05 33.405775 -118.413770 232 1533ft 14kts
07-Dec-17 09:06 33.403464 -118.415571 36 1546ft 0kts
07-Dec-17 09:07 33.403466 -118.415569 42 1546ft 0kts

Navigation Log

Ident Type
Flight plan parsing failed, navigation log unavailable